Howick, Canada
Current Conditions -  °F | °C
As of 2:00 PM on Friday 21 Nov 2014 (Local Time) from CYUL Reporting Station
Clear Clear  
Wind Chill:   Ceiling: Unl
Heat Index: 23°   Visibility: 30mi
Dew Point:   Wind: 17mph
Humidity: 46%   Direction: 250°WSW
Pressure: 30.23"   Gusts: 25mph
Location:  45.18°N, 73.85°W
Report Text: CYUL 211900Z 25015G22KT 30SM SKC M05/M15 A3023 RMK SLP240
Loading
Personal Weather Stations






























Interactive Weather Map New forecast layout! Learn more

10-Day Weather Forecast

Advertisements
Track Severe Weather on mobile